sensor_id;sensor_type;location;lat;lon;timestamp;temperature;humidity
64226;DHT22;50545;56.064;26.178;2023-02-11T00:01:15;-1.10;99.90
64226;DHT22;50545;56.064;26.178;2023-02-11T00:03:45;-1.10;99.90
64226;DHT22;50545;56.064;26.178;2023-02-11T00:06:12;-1.10;99.90
64226;DHT22;50545;56.064;26.178;2023-02-11T00:08:40;-1.20;99.90
64226;DHT22;50545;56.064;26.178;2023-02-11T00:11:12;-1.10;99.90
64226;DHT22;50545;56.064;26.178;2023-02-11T00:13:41;-1.10;99.90
64226;DHT22;50545;56.064;26.178;2023-02-11T00:16:11;-1.10;99.90
64226;DHT22;50545;56.064;26.178;2023-02-11T00:18:39;-1.10;99.90
64226;DHT22;50545;56.064;26.178;2023-02-11T00:21:15;-1.10;99.90
64226;DHT22;50545;56.064;26.178;2023-02-11T00:23:43;-1.00;99.90
64226;DHT22;50545;56.064;26.178;2023-02-11T00:26:22;-1.00;99.90
64226;DHT22;50545;56.064;26.178;2023-02-11T00:28:50;-1.00;99.90
64226;DHT22;50545;56.064;26.178;2023-02-11T00:31:19;-0.90;99.90
64226;DHT22;50545;56.064;26.178;2023-02-11T00:33:46;-0.90;99.90
64226;DHT22;50545;56.064;26.178;2023-02-11T00:36:17;-0.90;99.90
64226;DHT22;50545;56.064;26.178;2023-02-11T00:38:45;-0.80;99.90
64226;DHT22;50545;56.064;26.178;2023-02-11T00:41:14;-0.80;99.90
64226;DHT22;50545;56.064;26.178;2023-02-11T00:43:41;-0.80;99.90
64226;DHT22;50545;56.064;26.178;2023-02-11T00:46:09;-0.80;99.90
64226;DHT22;50545;56.064;26.178;2023-02-11T00:48:37;-0.70;99.90
64226;DHT22;50545;56.064;26.178;2023-02-11T00:51:05;-0.60;99.90
64226;DHT22;50545;56.064;26.178;2023-02-11T00:53:32;-0.60;99.90
64226;DHT22;50545;56.064;26.178;2023-02-11T00:55:59;-0.50;99.90
64226;DHT22;50545;56.064;26.178;2023-02-11T00:58:27;-0.50;99.90
64226;DHT22;50545;56.064;26.178;2023-02-11T01:00:55;-0.50;99.90
64226;DHT22;50545;56.064;26.178;2023-02-11T01:03:22;-0.50;99.90
64226;DHT22;50545;56.064;26.178;2023-02-11T01:05:50;-0.40;99.90
64226;DHT22;50545;56.064;26.178;2023-02-11T01:08:18;-0.40;99.90
64226;DHT22;50545;56.064;26.178;2023-02-11T01:11:02;-0.40;99.90
64226;DHT22;50545;56.064;26.178;2023-02-11T01:13:32;-0.40;99.90
64226;DHT22;50545;56.064;26.178;2023-02-11T01:15:59;-0.30;99.90
64226;DHT22;50545;56.064;26.178;2023-02-11T01:18:27;-0.30;99.90
64226;DHT22;50545;56.064;26.178;2023-02-11T01:20:54;-0.20;99.90
64226;DHT22;50545;56.064;26.178;2023-02-11T01:23:21;-0.10;99.90
64226;DHT22;50545;56.064;26.178;2023-02-11T01:25:49;-0.10;99.90
64226;DHT22;50545;56.064;26.178;2023-02-11T01:28:18;-0.10;99.90
64226;DHT22;50545;56.064;26.178;2023-02-11T01:30:46;0.00;99.90
64226;DHT22;50545;56.064;26.178;2023-02-11T01:33:13;-0.10;99.90
64226;DHT22;50545;56.064;26.178;2023-02-11T01:35:41;-0.10;99.90
64226;DHT22;50545;56.064;26.178;2023-02-11T01:38:15;-0.10;99.90
64226;DHT22;50545;56.064;26.178;2023-02-11T01:40:47;-0.10;99.90
64226;DHT22;50545;56.064;26.178;2023-02-11T01:43:15;-0.10;99.90
64226;DHT22;50545;56.064;26.178;2023-02-11T01:51:13;-0.10;99.90
64226;DHT22;50545;56.064;26.178;2023-02-11T01:53:43;-0.10;99.90
64226;DHT22;50545;56.064;26.178;2023-02-11T01:56:34;-0.10;99.90
64226;DHT22;50545;56.064;26.178;2023-02-11T01:59:39;-0.10;99.90
64226;DHT22;50545;56.064;26.178;2023-02-11T02:02:11;0.00;99.90
64226;DHT22;50545;56.064;26.178;2023-02-11T02:04:52;0.00;99.90
64226;DHT22;50545;56.064;26.178;2023-02-11T02:08:03;0.00;99.90
64226;DHT22;50545;56.064;26.178;2023-02-11T02:10:34;0.00;99.90
64226;DHT22;50545;56.064;26.178;2023-02-11T02:13:02;0.10;99.90
64226;DHT22;50545;56.064;26.178;2023-02-11T02:15:32;0.10;99.90
64226;DHT22;50545;56.064;26.178;2023-02-11T02:18:08;0.10;99.90
64226;DHT22;50545;56.064;26.178;2023-02-11T02:37:58;0.40;99.90
64226;DHT22;50545;56.064;26.178;2023-02-11T02:40:36;0.50;99.90
64226;DHT22;50545;56.064;26.178;2023-02-11T02:43:05;0.50;99.90
64226;DHT22;50545;56.064;26.178;2023-02-11T02:45:35;0.50;99.90
64226;DHT22;50545;56.064;26.178;2023-02-11T02:48:02;0.50;99.90
64226;DHT22;50545;56.064;26.178;2023-02-11T02:50:34;0.50;99.90
64226;DHT22;50545;56.064;26.178;2023-02-11T02:55:59;0.60;99.90
64226;DHT22;50545;56.064;26.178;2023-02-11T03:07:02;0.60;99.90
64226;DHT22;50545;56.064;26.178;2023-02-11T03:09:59;0.60;99.90
64226;DHT22;50545;56.064;26.178;2023-02-11T03:12:27;0.60;99.90
64226;DHT22;50545;56.064;26.178;2023-02-11T03:14:57;0.70;99.90
64226;DHT22;50545;56.064;26.178;2023-02-11T03:17:25;0.70;99.90
64226;DHT22;50545;56.064;26.178;2023-02-11T03:19:54;0.70;99.90
64226;DHT22;50545;56.064;26.178;2023-02-11T03:22:31;0.70;99.90
64226;DHT22;50545;56.064;26.178;2023-02-11T03:25:00;0.70;99.90
64226;DHT22;50545;56.064;26.178;2023-02-11T03:32:50;0.80;99.90
64226;DHT22;50545;56.064;26.178;2023-02-11T03:35:23;0.80;99.90
64226;DHT22;50545;56.064;26.178;2023-02-11T03:37:54;0.80;99.90
64226;DHT22;50545;56.064;26.178;2023-02-11T03:40:37;0.80;99.90
64226;DHT22;50545;56.064;26.178;2023-02-11T03:45:45;0.80;99.90
64226;DHT22;50545;56.064;26.178;2023-02-11T03:48:24;0.90;99.90
64226;DHT22;50545;56.064;26.178;2023-02-11T03:50:53;0.90;99.90
64226;DHT22;50545;56.064;26.178;2023-02-11T03:53:22;0.90;99.90
64226;DHT22;50545;56.064;26.178;2023-02-11T03:55:50;0.90;99.90
64226;DHT22;50545;56.064;26.178;2023-02-11T03:58:19;0.90;99.90
64226;DHT22;50545;56.064;26.178;2023-02-11T04:00:46;0.90;99.90
64226;DHT22;50545;56.064;26.178;2023-02-11T04:03:13;0.90;99.90
64226;DHT22;50545;56.064;26.178;2023-02-11T04:05:40;0.90;99.90
64226;DHT22;50545;56.064;26.178;2023-02-11T04:08:08;0.90;99.90
64226;DHT22;50545;56.064;26.178;2023-02-11T04:10:35;0.90;99.90
64226;DHT22;50545;56.064;26.178;2023-02-11T04:13:02;0.90;99.90
64226;DHT22;50545;56.064;26.178;2023-02-11T04:15:29;1.00;99.90
64226;DHT22;50545;56.064;26.178;2023-02-11T04:17:57;1.00;99.90
64226;DHT22;50545;56.064;26.178;2023-02-11T04:20:24;1.00;99.90
64226;DHT22;50545;56.064;26.178;2023-02-11T04:22:51;1.00;99.90
64226;DHT22;50545;56.064;26.178;2023-02-11T04:25:18;1.00;99.90
64226;DHT22;50545;56.064;26.178;2023-02-11T04:27:46;1.10;99.90
64226;DHT22;50545;56.064;26.178;2023-02-11T04:30:13;1.10;99.90
64226;DHT22;50545;56.064;26.178;2023-02-11T04:32:40;1.10;99.90
64226;DHT22;50545;56.064;26.178;2023-02-11T04:35:08;1.10;99.90
64226;DHT22;50545;56.064;26.178;2023-02-11T04:37:35;1.10;99.90
64226;DHT22;50545;56.064;26.178;2023-02-11T04:40:03;1.10;99.90
64226;DHT22;50545;56.064;26.178;2023-02-11T04:42:30;1.10;99.90
64226;DHT22;50545;56.064;26.178;2023-02-11T04:44:57;1.20;99.90
64226;DHT22;50545;56.064;26.178;2023-02-11T04:47:24;1.10;99.90
64226;DHT22;50545;56.064;26.178;2023-02-11T04:49:52;1.20;99.90
64226;DHT22;50545;56.064;26.178;2023-02-11T04:52:19;1.20;99.90
64226;DHT22;50545;56.064;26.178;2023-02-11T04:54:46;1.20;99.90
64226;DHT22;50545;56.064;26.178;2023-02-11T04:57:13;1.20;99.90
64226;DHT22;50545;56.064;26.178;2023-02-11T04:59:40;1.20;99.90
64226;DHT22;50545;56.064;26.178;2023-02-11T05:02:08;1.20;99.90
64226;DHT22;50545;56.064;26.178;2023-02-11T05:04:35;1.20;99.90
64226;DHT22;50545;56.064;26.178;2023-02-11T05:07:02;1.20;99.90
64226;DHT22;50545;56.064;26.178;2023-02-11T05:09:29;1.20;99.90
64226;DHT22;50545;56.064;26.178;2023-02-11T05:11:56;1.20;99.90
64226;DHT22;50545;56.064;26.178;2023-02-11T05:14:23;1.20;99.90
64226;DHT22;50545;56.064;26.178;2023-02-11T05:16:51;1.20;99.90
64226;DHT22;50545;56.064;26.178;2023-02-11T05:19:18;1.20;99.90
64226;DHT22;50545;56.064;26.178;2023-02-11T05:21:45;1.30;99.90
64226;DHT22;50545;56.064;26.178;2023-02-11T05:24:27;1.20;99.90
64226;DHT22;50545;56.064;26.178;2023-02-11T05:26:54;1.30;99.90
64226;DHT22;50545;56.064;26.178;2023-02-11T05:29:21;1.30;99.90
64226;DHT22;50545;56.064;26.178;2023-02-11T05:31:48;1.20;99.90
64226;DHT22;50545;56.064;26.178;2023-02-11T05:34:16;1.20;99.90
64226;DHT22;50545;56.064;26.178;2023-02-11T05:36:43;1.20;99.90
64226;DHT22;50545;56.064;26.178;2023-02-11T05:39:10;1.20;99.90
64226;DHT22;50545;56.064;26.178;2023-02-11T05:41:37;1.30;99.90
64226;DHT22;50545;56.064;26.178;2023-02-11T05:44:05;1.30;99.90
64226;DHT22;50545;56.064;26.178;2023-02-11T05:46:32;1.40;99.90
64226;DHT22;50545;56.064;26.178;2023-02-11T05:48:59;1.40;99.90
64226;DHT22;50545;56.064;26.178;2023-02-11T05:51:26;1.50;99.90
64226;DHT22;50545;56.064;26.178;2023-02-11T05:53:53;1.50;99.90
64226;DHT22;50545;56.064;26.178;2023-02-11T05:56:21;1.50;99.90
64226;DHT22;50545;56.064;26.178;2023-02-11T05:58:48;1.50;99.90
64226;DHT22;50545;56.064;26.178;2023-02-11T06:01:15;1.40;99.90
64226;DHT22;50545;56.064;26.178;2023-02-11T06:03:42;1.50;99.90
64226;DHT22;50545;56.064;26.178;2023-02-11T06:06:12;1.50;99.90
64226;DHT22;50545;56.064;26.178;2023-02-11T06:08:39;1.40;99.90
64226;DHT22;50545;56.064;26.178;2023-02-11T06:11:07;1.50;99.90
64226;DHT22;50545;56.064;26.178;2023-02-11T06:13:34;1.50;99.90
64226;DHT22;50545;56.064;26.178;2023-02-11T06:16:02;1.50;99.90
64226;DHT22;50545;56.064;26.178;2023-02-11T06:18:29;1.50;99.90
64226;DHT22;50545;56.064;26.178;2023-02-11T06:20:59;1.50;99.90
64226;DHT22;50545;56.064;26.178;2023-02-11T06:23:26;1.50;99.90
64226;DHT22;50545;56.064;26.178;2023-02-11T06:26:00;1.50;99.90
64226;DHT22;50545;56.064;26.178;2023-02-11T06:28:28;1.50;99.90
64226;DHT22;50545;56.064;26.178;2023-02-11T06:30:58;1.60;99.90
64226;DHT22;50545;56.064;26.178;2023-02-11T06:33:25;1.60;99.90
64226;DHT22;50545;56.064;26.178;2023-02-11T06:35:52;1.60;99.90
64226;DHT22;50545;56.064;26.178;2023-02-11T06:38:20;1.60;99.90
64226;DHT22;50545;56.064;26.178;2023-02-11T06:40:48;1.70;99.90
64226;DHT22;50545;56.064;26.178;2023-02-11T06:43:16;1.70;99.90
64226;DHT22;50545;56.064;26.178;2023-02-11T06:45:43;1.70;99.90
64226;DHT22;50545;56.064;26.178;2023-02-11T06:48:10;1.70;99.90
64226;DHT22;50545;56.064;26.178;2023-02-11T06:50:37;1.70;99.90
64226;DHT22;50545;56.064;26.178;2023-02-11T06:53:05;1.70;99.90
64226;DHT22;50545;56.064;26.178;2023-02-11T06:55:34;1.70;99.90
64226;DHT22;50545;56.064;26.178;2023-02-11T06:58:01;1.70;99.90
64226;DHT22;50545;56.064;26.178;2023-02-11T07:00:28;1.70;99.90
64226;DHT22;50545;56.064;26.178;2023-02-11T07:02:56;1.70;99.90
64226;DHT22;50545;56.064;26.178;2023-02-11T07:05:23;1.70;99.90
64226;DHT22;50545;56.064;26.178;2023-02-11T07:07:50;1.70;99.90
64226;DHT22;50545;56.064;26.178;2023-02-11T07:10:18;1.70;99.90
64226;DHT22;50545;56.064;26.178;2023-02-11T07:12:45;1.70;99.90
64226;DHT22;50545;56.064;26.178;2023-02-11T07:15:12;1.70;99.90
64226;DHT22;50545;56.064;26.178;2023-02-11T07:17:39;1.70;99.90
64226;DHT22;50545;56.064;26.178;2023-02-11T07:20:07;1.70;99.90
64226;DHT22;50545;56.064;26.178;2023-02-11T07:22:35;1.60;99.90
64226;DHT22;50545;56.064;26.178;2023-02-11T07:25:03;1.70;99.90
64226;DHT22;50545;56.064;26.178;2023-02-11T07:27:30;1.70;99.90
64226;DHT22;50545;56.064;26.178;2023-02-11T07:29:58;1.60;99.90
64226;DHT22;50545;56.064;26.178;2023-02-11T07:32:25;1.70;99.90
64226;DHT22;50545;56.064;26.178;2023-02-11T07:34:52;1.70;99.90
64226;DHT22;50545;56.064;26.178;2023-02-11T07:37:20;1.70;99.90
64226;DHT22;50545;56.064;26.178;2023-02-11T07:39:47;1.70;99.90
64226;DHT22;50545;56.064;26.178;2023-02-11T07:42:14;1.80;99.90
64226;DHT22;50545;56.064;26.178;2023-02-11T07:44:41;1.80;99.90
64226;DHT22;50545;56.064;26.178;2023-02-11T07:47:09;1.80;99.90
64226;DHT22;50545;56.064;26.178;2023-02-11T07:49:36;1.80;99.90
64226;DHT22;50545;56.064;26.178;2023-02-11T07:52:03;1.80;99.90
64226;DHT22;50545;56.064;26.178;2023-02-11T07:54:31;1.80;99.90
64226;DHT22;50545;56.064;26.178;2023-02-11T07:56:58;1.80;99.90
64226;DHT22;50545;56.064;26.178;2023-02-11T07:59:25;1.80;99.90
64226;DHT22;50545;56.064;26.178;2023-02-11T08:01:53;1.80;99.90
64226;DHT22;50545;56.064;26.178;2023-02-11T08:04:20;1.80;99.90
64226;DHT22;50545;56.064;26.178;2023-02-11T08:06:48;1.90;99.90
64226;DHT22;50545;56.064;26.178;2023-02-11T08:09:15;1.80;99.90
64226;DHT22;50545;56.064;26.178;2023-02-11T08:11:43;1.90;99.90
64226;DHT22;50545;56.064;26.178;2023-02-11T08:14:11;1.90;99.90
64226;DHT22;50545;56.064;26.178;2023-02-11T08:16:39;1.90;99.90
64226;DHT22;50545;56.064;26.178;2023-02-11T08:19:10;1.90;99.90
64226;DHT22;50545;56.064;26.178;2023-02-11T08:21:39;2.00;99.90
64226;DHT22;50545;56.064;26.178;2023-02-11T08:24:06;2.00;99.90
64226;DHT22;50545;56.064;26.178;2023-02-11T08:26:34;2.00;99.90
64226;DHT22;50545;56.064;26.178;2023-02-11T08:29:06;2.00;99.90
64226;DHT22;50545;56.064;26.178;2023-02-11T08:31:36;2.00;99.90
64226;DHT22;50545;56.064;26.178;2023-02-11T08:34:05;2.00;99.90
64226;DHT22;50545;56.064;26.178;2023-02-11T08:36:34;2.00;99.90
64226;DHT22;50545;56.064;26.178;2023-02-11T08:39:08;2.00;99.90
64226;DHT22;50545;56.064;26.178;2023-02-11T08:41:51;2.10;99.90
64226;DHT22;50545;56.064;26.178;2023-02-11T08:44:19;2.10;99.90
64226;DHT22;50545;56.064;26.178;2023-02-11T08:46:48;2.20;99.90
64226;DHT22;50545;56.064;26.178;2023-02-11T08:49:16;2.20;99.90
64226;DHT22;50545;56.064;26.178;2023-02-11T08:51:44;2.20;99.90
64226;DHT22;50545;56.064;26.178;2023-02-11T08:54:12;2.20;99.90
64226;DHT22;50545;56.064;26.178;2023-02-11T08:56:40;2.20;99.90
64226;DHT22;50545;56.064;26.178;2023-02-11T08:59:09;2.20;99.90
64226;DHT22;50545;56.064;26.178;2023-02-11T09:01:37;2.20;99.90
64226;DHT22;50545;56.064;26.178;2023-02-11T09:04:05;2.20;99.90
64226;DHT22;50545;56.064;26.178;2023-02-11T09:06:32;2.20;99.90
64226;DHT22;50545;56.064;26.178;2023-02-11T09:09:00;2.20;99.90
64226;DHT22;50545;56.064;26.178;2023-02-11T09:11:30;2.20;99.90
64226;DHT22;50545;56.064;26.178;2023-02-11T09:13:59;2.20;99.90
64226;DHT22;50545;56.064;26.178;2023-02-11T09:16:30;2.20;99.90
64226;DHT22;50545;56.064;26.178;2023-02-11T09:18:59;2.20;99.90
64226;DHT22;50545;56.064;26.178;2023-02-11T09:21:27;2.20;99.90
64226;DHT22;50545;56.064;26.178;2023-02-11T09:23:55;2.20;99.90
64226;DHT22;50545;56.064;26.178;2023-02-11T09:26:29;2.20;99.90
64226;DHT22;50545;56.064;26.178;2023-02-11T09:28:57;2.20;99.90
64226;DHT22;50545;56.064;26.178;2023-02-11T09:31:26;2.30;99.90
64226;DHT22;50545;56.064;26.178;2023-02-11T09:33:57;2.30;99.90
64226;DHT22;50545;56.064;26.178;2023-02-11T09:36:25;2.40;99.90
64226;DHT22;50545;56.064;26.178;2023-02-11T09:38:53;2.40;99.90
64226;DHT22;50545;56.064;26.178;2023-02-11T09:41:39;2.40;99.90
64226;DHT22;50545;56.064;26.178;2023-02-11T09:44:17;2.50;99.90
64226;DHT22;50545;56.064;26.178;2023-02-11T09:46:49;2.50;99.90
64226;DHT22;50545;56.064;26.178;2023-02-11T09:49:30;2.50;99.90
64226;DHT22;50545;56.064;26.178;2023-02-11T09:57:44;2.60;99.90
64226;DHT22;50545;56.064;26.178;2023-02-11T10:00:24;2.60;99.90
64226;DHT22;50545;56.064;26.178;2023-02-11T10:14:23;2.70;99.90
64226;DHT22;50545;56.064;26.178;2023-02-11T10:22:49;2.70;99.90
64226;DHT22;50545;56.064;26.178;2023-02-11T10:27:49;2.60;99.90
64226;DHT22;50545;56.064;26.178;2023-02-11T10:30:40;2.60;99.90
64226;DHT22;50545;56.064;26.178;2023-02-11T10:33:32;2.60;99.90
64226;DHT22;50545;56.064;26.178;2023-02-11T10:36:03;2.70;99.90
64226;DHT22;50545;56.064;26.178;2023-02-11T10:38:30;2.70;99.90
64226;DHT22;50545;56.064;26.178;2023-02-11T10:40:59;2.70;99.90
64226;DHT22;50545;56.064;26.178;2023-02-11T10:43:28;2.70;99.90
64226;DHT22;50545;56.064;26.178;2023-02-11T10:45:57;2.70;99.90
64226;DHT22;50545;56.064;26.178;2023-02-11T10:53:40;2.70;99.90
64226;DHT22;50545;56.064;26.178;2023-02-11T10:56:13;2.70;99.90
64226;DHT22;50545;56.064;26.178;2023-02-11T10:58:54;2.80;99.90
64226;DHT22;50545;56.064;26.178;2023-02-11T11:01:36;2.80;99.90
64226;DHT22;50545;56.064;26.178;2023-02-11T11:04:04;2.70;99.90
64226;DHT22;50545;56.064;26.178;2023-02-11T11:06:32;2.80;99.90
64226;DHT22;50545;56.064;26.178;2023-02-11T11:09:01;2.70;99.90
64226;DHT22;50545;56.064;26.178;2023-02-11T11:11:28;2.70;99.90
64226;DHT22;50545;56.064;26.178;2023-02-11T11:13:57;2.70;99.90
64226;DHT22;50545;56.064;26.178;2023-02-11T11:16:28;2.80;99.90
64226;DHT22;50545;56.064;26.178;2023-02-11T11:24:03;2.90;99.90
64226;DHT22;50545;56.064;26.178;2023-02-11T11:26:48;2.90;99.90
64226;DHT22;50545;56.064;26.178;2023-02-11T11:31:58;2.80;99.90
64226;DHT22;50545;56.064;26.178;2023-02-11T11:34:38;2.80;99.90
64226;DHT22;50545;56.064;26.178;2023-02-11T11:37:28;2.80;99.90
64226;DHT22;50545;56.064;26.178;2023-02-11T11:42:27;2.80;99.90
64226;DHT22;50545;56.064;26.178;2023-02-11T11:44:57;2.80;99.90
64226;DHT22;50545;56.064;26.178;2023-02-11T11:47:42;2.80;99.90
64226;DHT22;50545;56.064;26.178;2023-02-11T11:50:32;2.80;99.90
64226;DHT22;50545;56.064;26.178;2023-02-11T11:53:23;2.80;99.90
64226;DHT22;50545;56.064;26.178;2023-02-11T11:56:01;2.70;99.90
64226;DHT22;50545;56.064;26.178;2023-02-11T11:58:31;2.70;99.90
64226;DHT22;50545;56.064;26.178;2023-02-11T12:06:42;2.70;99.90
64226;DHT22;50545;56.064;26.178;2023-02-11T12:12:10;2.70;99.90
64226;DHT22;50545;56.064;26.178;2023-02-11T12:26:47;3.00;99.90
64226;DHT22;50545;56.064;26.178;2023-02-11T12:38:11;2.90;99.90
64226;DHT22;50545;56.064;26.178;2023-02-11T12:40:45;2.90;99.90
64226;DHT22;50545;56.064;26.178;2023-02-11T12:43:22;2.90;99.90
64226;DHT22;50545;56.064;26.178;2023-02-11T12:54:18;3.10;99.90
64226;DHT22;50545;56.064;26.178;2023-02-11T13:00:14;3.20;99.90
64226;DHT22;50545;56.064;26.178;2023-02-11T13:05:43;3.30;99.90
64226;DHT22;50545;56.064;26.178;2023-02-11T13:10:56;3.30;99.90
64226;DHT22;50545;56.064;26.178;2023-02-11T13:16:42;3.40;99.90
64226;DHT22;50545;56.064;26.178;2023-02-11T13:32:24;3.20;99.90
64226;DHT22;50545;56.064;26.178;2023-02-11T13:37:22;3.00;99.90
64226;DHT22;50545;56.064;26.178;2023-02-11T13:40:01;3.00;99.90
64226;DHT22;50545;56.064;26.178;2023-02-11T13:42:29;2.90;99.90
64226;DHT22;50545;56.064;26.178;2023-02-11T13:44:57;2.90;99.90
64226;DHT22;50545;56.064;26.178;2023-02-11T13:47:30;2.80;99.90
64226;DHT22;50545;56.064;26.178;2023-02-11T13:49:59;2.70;99.90
64226;DHT22;50545;56.064;26.178;2023-02-11T13:52:36;2.70;99.90
64226;DHT22;50545;56.064;26.178;2023-02-11T13:55:22;2.80;99.90
64226;DHT22;50545;56.064;26.178;2023-02-11T14:06:14;2.70;99.90
64226;DHT22;50545;56.064;26.178;2023-02-11T14:17:32;2.60;99.90
64226;DHT22;50545;56.064;26.178;2023-02-11T14:20:02;2.50;99.90
64226;DHT22;50545;56.064;26.178;2023-02-11T14:22:43;2.40;99.90
64226;DHT22;50545;56.064;26.178;2023-02-11T14:25:22;2.30;99.90
64226;DHT22;50545;56.064;26.178;2023-02-11T14:27:59;2.20;99.90
64226;DHT22;50545;56.064;26.178;2023-02-11T14:41:07;1.90;99.90
64226;DHT22;50545;56.064;26.178;2023-02-11T14:43:43;1.80;99.90
64226;DHT22;50545;56.064;26.178;2023-02-11T14:46:15;1.80;99.90
64226;DHT22;50545;56.064;26.178;2023-02-11T14:48:48;1.80;99.90
64226;DHT22;50545;56.064;26.178;2023-02-11T14:51:23;1.80;99.90
64226;DHT22;50545;56.064;26.178;2023-02-11T14:53:54;1.70;99.90
64226;DHT22;50545;56.064;26.178;2023-02-11T14:56:26;1.70;99.90
64226;DHT22;50545;56.064;26.178;2023-02-11T14:58:54;1.70;99.90
64226;DHT22;50545;56.064;26.178;2023-02-11T15:01:29;1.60;99.90
64226;DHT22;50545;56.064;26.178;2023-02-11T15:03:59;1.50;99.90
64226;DHT22;50545;56.064;26.178;2023-02-11T15:06:40;1.50;99.90
64226;DHT22;50545;56.064;26.178;2023-02-11T15:09:23;1.50;99.90
64226;DHT22;50545;56.064;26.178;2023-02-11T15:11:57;1.50;99.90
64226;DHT22;50545;56.064;26.178;2023-02-11T15:14:34;1.40;99.90
64226;DHT22;50545;56.064;26.178;2023-02-11T15:17:04;1.50;99.90
64226;DHT22;50545;56.064;26.178;2023-02-11T15:19:38;1.50;99.90
64226;DHT22;50545;56.064;26.178;2023-02-11T15:25:15;1.50;99.90
64226;DHT22;50545;56.064;26.178;2023-02-11T15:27:47;1.50;99.90
64226;DHT22;50545;56.064;26.178;2023-02-11T15:32:54;1.50;99.90
64226;DHT22;50545;56.064;26.178;2023-02-11T15:35:33;1.40;99.90
64226;DHT22;50545;56.064;26.178;2023-02-11T15:38:02;1.50;99.90
64226;DHT22;50545;56.064;26.178;2023-02-11T15:40:33;1.40;99.90
64226;DHT22;50545;56.064;26.178;2023-02-11T15:43:03;1.50;99.90
64226;DHT22;50545;56.064;26.178;2023-02-11T15:48:22;1.40;99.90
64226;DHT22;50545;56.064;26.178;2023-02-11T15:50:59;1.40;99.90
64226;DHT22;50545;56.064;26.178;2023-02-11T15:53:39;1.40;99.90
64226;DHT22;50545;56.064;26.178;2023-02-11T15:56:11;1.30;99.90
64226;DHT22;50545;56.064;26.178;2023-02-11T15:58:43;1.30;99.90
64226;DHT22;50545;56.064;26.178;2023-02-11T16:01:12;1.20;99.90
64226;DHT22;50545;56.064;26.178;2023-02-11T16:03:40;1.10;99.90
64226;DHT22;50545;56.064;26.178;2023-02-11T16:06:21;1.00;99.90
64226;DHT22;50545;56.064;26.178;2023-02-11T16:11:54;0.90;99.90
64226;DHT22;50545;56.064;26.178;2023-02-11T16:17:06;0.80;99.90
64226;DHT22;50545;56.064;26.178;2023-02-11T16:19:40;0.70;99.90
64226;DHT22;50545;56.064;26.178;2023-02-11T16:22:14;0.70;99.90
64226;DHT22;50545;56.064;26.178;2023-02-11T16:24:46;0.70;99.90
64226;DHT22;50545;56.064;26.178;2023-02-11T16:27:22;0.70;99.90
64226;DHT22;50545;56.064;26.178;2023-02-11T16:29:51;0.70;99.90
64226;DHT22;50545;56.064;26.178;2023-02-11T16:32:23;0.60;99.90
64226;DHT22;50545;56.064;26.178;2023-02-11T16:34:53;0.60;99.90
64226;DHT22;50545;56.064;26.178;2023-02-11T16:37:21;0.60;99.90
64226;DHT22;50545;56.064;26.178;2023-02-11T16:39:51;0.60;99.90
64226;DHT22;50545;56.064;26.178;2023-02-11T16:42:19;0.60;99.90
64226;DHT22;50545;56.064;26.178;2023-02-11T16:44:46;0.60;99.90
64226;DHT22;50545;56.064;26.178;2023-02-11T16:47:23;0.60;99.90
64226;DHT22;50545;56.064;26.178;2023-02-11T16:49:50;0.60;99.90
64226;DHT22;50545;56.064;26.178;2023-02-11T16:52:20;0.60;99.90
64226;DHT22;50545;56.064;26.178;2023-02-11T16:54:47;0.60;99.90
64226;DHT22;50545;56.064;26.178;2023-02-11T16:57:16;0.60;99.90
64226;DHT22;50545;56.064;26.178;2023-02-11T16:59:44;0.50;99.90
64226;DHT22;50545;56.064;26.178;2023-02-11T17:02:27;0.50;99.90
64226;DHT22;50545;56.064;26.178;2023-02-11T17:04:58;0.50;99.90
64226;DHT22;50545;56.064;26.178;2023-02-11T17:07:26;0.40;99.90
64226;DHT22;50545;56.064;26.178;2023-02-11T17:09:54;0.40;99.90
64226;DHT22;50545;56.064;26.178;2023-02-11T17:12:21;0.30;99.90
64226;DHT22;50545;56.064;26.178;2023-02-11T17:14:52;0.30;99.90
64226;DHT22;50545;56.064;26.178;2023-02-11T17:17:19;0.30;99.90
64226;DHT22;50545;56.064;26.178;2023-02-11T17:19:49;0.20;99.90
64226;DHT22;50545;56.064;26.178;2023-02-11T17:22:17;0.20;99.90
64226;DHT22;50545;56.064;26.178;2023-02-11T17:24:44;0.10;99.90
64226;DHT22;50545;56.064;26.178;2023-02-11T17:27:12;0.10;99.90
64226;DHT22;50545;56.064;26.178;2023-02-11T17:29:40;0.10;99.90
64226;DHT22;50545;56.064;26.178;2023-02-11T17:32:07;0.00;99.90
64226;DHT22;50545;56.064;26.178;2023-02-11T17:34:34;0.00;99.90
64226;DHT22;50545;56.064;26.178;2023-02-11T17:37:01;0.00;99.90
64226;DHT22;50545;56.064;26.178;2023-02-11T17:39:36;-0.10;99.90
64226;DHT22;50545;56.064;26.178;2023-02-11T17:42:04;-0.10;99.90
64226;DHT22;50545;56.064;26.178;2023-02-11T17:44:32;-0.20;99.90
64226;DHT22;50545;56.064;26.178;2023-02-11T17:46:59;-0.20;99.90
64226;DHT22;50545;56.064;26.178;2023-02-11T17:49:27;-0.20;99.90
64226;DHT22;50545;56.064;26.178;2023-02-11T17:51:54;-0.20;99.90
64226;DHT22;50545;56.064;26.178;2023-02-11T17:54:22;-0.30;99.90
64226;DHT22;50545;56.064;26.178;2023-02-11T17:56:50;-0.30;99.90
64226;DHT22;50545;56.064;26.178;2023-02-11T17:59:23;-0.30;99.90
64226;DHT22;50545;56.064;26.178;2023-02-11T18:01:51;-0.40;99.90
64226;DHT22;50545;56.064;26.178;2023-02-11T18:04:19;-0.40;99.90
64226;DHT22;50545;56.064;26.178;2023-02-11T18:06:46;-0.50;99.90
64226;DHT22;50545;56.064;26.178;2023-02-11T18:09:13;-0.50;99.90
64226;DHT22;50545;56.064;26.178;2023-02-11T18:11:41;-0.50;99.90
64226;DHT22;50545;56.064;26.178;2023-02-11T18:14:09;-0.50;99.90
64226;DHT22;50545;56.064;26.178;2023-02-11T18:16:37;-0.60;99.90
64226;DHT22;50545;56.064;26.178;2023-02-11T18:19:06;-0.60;99.90
64226;DHT22;50545;56.064;26.178;2023-02-11T18:21:34;-0.60;99.90
64226;DHT22;50545;56.064;26.178;2023-02-11T18:24:01;-0.60;99.90
64226;DHT22;50545;56.064;26.178;2023-02-11T18:26:33;-0.70;99.90
64226;DHT22;50545;56.064;26.178;2023-02-11T18:29:01;-0.70;99.90
64226;DHT22;50545;56.064;26.178;2023-02-11T18:31:29;-0.70;99.90
64226;DHT22;50545;56.064;26.178;2023-02-11T18:33:57;-0.80;99.90
64226;DHT22;50545;56.064;26.178;2023-02-11T18:36:24;-0.80;99.90
64226;DHT22;50545;56.064;26.178;2023-02-11T18:38:52;-0.90;99.90
64226;DHT22;50545;56.064;26.178;2023-02-11T18:41:20;-0.90;99.90
64226;DHT22;50545;56.064;26.178;2023-02-11T18:43:47;-0.90;99.90
64226;DHT22;50545;56.064;26.178;2023-02-11T18:46:15;-0.90;99.90
64226;DHT22;50545;56.064;26.178;2023-02-11T18:48:42;-1.00;99.90
64226;DHT22;50545;56.064;26.178;2023-02-11T18:51:14;-1.00;99.90
64226;DHT22;50545;56.064;26.178;2023-02-11T18:53:42;-1.00;99.90
64226;DHT22;50545;56.064;26.178;2023-02-11T18:56:12;-1.00;99.90
64226;DHT22;50545;56.064;26.178;2023-02-11T18:58:39;-1.00;99.90